createdAt,value
2019-04-07T00:03:13.907Z,99824.37
2019-04-07T00:08:19.551Z,99827.83
2019-04-07T00:13:25.182Z,99829.16
2019-04-07T00:18:30.827Z,99821.02
2019-04-07T00:23:36.254Z,99818.16
2019-04-07T00:28:42.116Z,99822.03
2019-04-07T00:33:47.631Z,99820.22
2019-04-07T00:38:53.087Z,99826.03
2019-04-07T00:43:58.530Z,99826.23
2019-04-07T00:49:04.068Z,99823.13
2019-04-07T00:54:09.937Z,99821.20
2019-04-07T00:59:15.452Z,99820.39
2019-04-07T01:04:21.116Z,99803.41
2019-04-07T01:09:26.536Z,99804.50
2019-04-07T01:14:32.385Z,99811.14
2019-04-07T01:19:38.121Z,99811.31
2019-04-07T01:24:44.056Z,99798.29
2019-04-07T01:29:49.472Z,99802.78
2019-04-07T01:34:54.888Z,99805.64
2019-04-07T01:40:00.452Z,99806.48
2019-04-07T01:45:34.384Z,99825.32
2019-04-07T01:51:04.540Z,99831.38
2019-04-07T01:56:24.110Z,99821.77
2019-04-07T02:01:48.128Z,99811.81
2019-04-07T02:07:05.892Z,99809.94
2019-04-07T02:12:33.427Z,99807.41
2019-04-07T02:17:48.142Z,99816.83
2019-04-07T02:23:15.462Z,99816.06
2019-04-07T02:28:38.383Z,99817.27
2019-04-07T02:33:48.864Z,99814.68
2019-04-07T02:39:11.909Z,99820.51
2019-04-07T02:44:37.026Z,99820.70
2019-04-07T02:49:52.916Z,99816.53
2019-04-07T02:55:15.914Z,99818.06
2019-04-07T03:00:43.270Z,99820.95
2019-04-07T03:06:14.664Z,99825.31
2019-04-07T03:11:37.305Z,99816.05
2019-04-07T03:17:00.360Z,99826.44
2019-04-07T03:22:34.288Z,99835.28
2019-04-07T03:27:57.369Z,99834.36
2019-04-07T03:33:14.113Z,99834.89
2019-04-07T03:38:31.382Z,99836.57
2019-04-07T03:43:42.712Z,99841.11
2019-04-07T03:48:56.467Z,99841.52
2019-04-07T03:54:21.093Z,99849.67
2019-04-07T03:59:54.411Z,99846.13
2019-04-07T04:05:17.449Z,99853.78
2019-04-07T04:10:27.231Z,99853.63
2019-04-07T04:15:46.902Z,99855.77
2019-04-07T04:20:52.854Z,99860.03
2019-04-07T04:25:59.009Z,99859.66
2019-04-07T04:31:04.736Z,99860.75
2019-04-07T04:36:10.215Z,99871.78
2019-04-07T04:41:16.788Z,99871.80
2019-04-07T04:46:22.320Z,99869.66
2019-04-07T04:51:28.176Z,99870.09
2019-04-07T04:56:33.711Z,99870.61
2019-04-07T05:01:39.742Z,99876.23
2019-04-07T05:06:45.566Z,99885.27
2019-04-07T05:11:52.785Z,99884.14
2019-04-07T05:16:58.599Z,99885.70
2019-04-07T05:22:04.955Z,99885.73
2019-04-07T05:27:10.682Z,99890.39
2019-04-07T05:32:16.895Z,99890.50
2019-04-07T05:37:23.007Z,99897.08
2019-04-07T05:42:28.874Z,99899.47
2019-04-07T05:47:34.326Z,99902.10
2019-04-07T05:52:40.815Z,99897.23
2019-04-07T05:57:46.558Z,99897.70
2019-04-07T06:02:52.757Z,99906.45
2019-04-07T06:08:02.699Z,99911.52
2019-04-07T06:13:05.450Z,99908.52
2019-04-07T06:18:11.712Z,99913.55
2019-04-07T06:23:17.776Z,99909.83
2019-04-07T06:28:23.787Z,99905.84
2019-04-07T06:33:29.741Z,99901.79
2019-04-07T06:38:41.018Z,99902.61
2019-04-07T06:43:43.159Z,99901.18
2019-04-07T06:49:19.714Z,99902.04
2019-04-07T06:54:53.503Z,99894.02
2019-04-07T07:00:20.593Z,99887.87
2019-04-07T07:05:53.664Z,99894.41
2019-04-07T07:11:26.494Z,99894.62
2019-04-07T07:16:46.150Z,99888.21
2019-04-07T07:22:15.511Z,99882.33
2019-04-07T07:27:17.881Z,99876.47
2019-04-07T07:32:23.679Z,99864.20
2019-04-07T07:37:30.058Z,99862.98
2019-04-07T07:42:36.534Z,99858.23
2019-04-07T07:47:42.661Z,99859.87
2019-04-07T07:52:51.339Z,99863.78
2019-04-07T07:57:58.914Z,99860.55
2019-04-07T08:03:04.892Z,99862.70
2019-04-07T08:08:11.500Z,99867.71
2019-04-07T08:13:17.888Z,99863.98
2019-04-07T08:18:23.772Z,99860.94
2019-04-07T08:23:29.732Z,99856.13
2019-04-07T08:28:36.127Z,99857.79
2019-04-07T08:33:43.272Z,99859.64
2019-04-07T08:38:51.785Z,99853.95
2019-04-07T08:43:57.743Z,99860.54
2019-04-07T08:49:03.717Z,99860.66
2019-04-07T08:54:09.911Z,99851.03
2019-04-07T08:59:17.057Z,99852.68
2019-04-07T09:04:23.110Z,99854.34
2019-04-07T09:09:34.043Z,99861.01
2019-04-07T09:14:38.762Z,99856.81
2019-04-07T09:20:10.566Z,99861.42
2019-04-07T09:25:40.723Z,99857.02
2019-04-07T09:31:04.810Z,99859.34
2019-04-07T09:36:20.799Z,99868.25
2019-04-07T09:41:36.415Z,99867.53
2019-04-07T09:46:54.152Z,99866.22
2019-04-07T09:52:22.125Z,99869.33
2019-04-07T09:57:46.150Z,99878.14
2019-04-07T10:03:18.274Z,99884.52
2019-04-07T10:08:48.537Z,99889.10
2019-04-07T10:14:22.960Z,99902.92
2019-04-07T10:19:57.756Z,99905.05
2019-04-07T10:25:19.972Z,99909.36
2019-04-07T10:30:45.985Z,99904.78
2019-04-07T10:36:19.475Z,99896.21
2019-04-07T10:41:42.727Z,99897.20
2019-04-07T10:47:12.920Z,99897.90
2019-04-07T10:52:41.250Z,99899.22
2019-04-07T10:58:03.130Z,99907.61
2019-04-07T11:03:21.357Z,99905.88
2019-04-07T11:08:44.445Z,99908.00
2019-04-07T11:14:05.872Z,99898.95
2019-04-07T11:19:20.749Z,99904.33
2019-04-07T11:24:53.570Z,99890.75
2019-04-07T11:30:05.366Z,99899.15
2019-04-07T11:35:45.580Z,99900.30
2019-04-07T11:41:15.724Z,99894.47
2019-04-07T11:46:34.109Z,99891.75
2019-04-07T11:51:47.867Z,99899.02
2019-04-07T11:57:05.790Z,99888.56
2019-04-07T12:02:30.786Z,99886.38
2019-04-07T12:07:56.749Z,99892.12
2019-04-07T12:13:20.032Z,99878.94
2019-04-07T12:18:53.696Z,99887.89
2019-04-07T12:24:29.510Z,99884.77
2019-04-07T12:29:51.805Z,99879.92
2019-04-07T12:35:17.177Z,99891.24
2019-04-07T12:40:32.409Z,99890.09
2019-04-07T12:46:09.028Z,99889.41
2019-04-07T12:51:37.489Z,99878.22
2019-04-07T12:56:53.441Z,99875.45
2019-04-07T13:02:21.384Z,99871.16
2019-04-07T13:07:48.415Z,99881.66
2019-04-07T13:13:32.492Z,99877.48
2019-04-07T13:18:54.402Z,99863.73
2019-04-07T13:24:12.841Z,99872.45
2019-04-07T13:29:40.131Z,99869.69
2019-04-07T13:35:03.231Z,99867.58
2019-04-07T13:40:26.291Z,99869.92
2019-04-07T13:45:49.436Z,99868.62
2019-04-07T13:51:12.956Z,99857.72
2019-04-07T13:56:37.090Z,99850.95
2019-04-07T14:01:59.134Z,99858.02
2019-04-07T14:07:25.220Z,99857.24
2019-04-07T14:12:50.553Z,99843.09
2019-04-07T14:18:04.750Z,99840.80
2019-04-07T14:23:35.347Z,99847.28
2019-04-07T14:29:08.692Z,99842.69
2019-04-07T14:34:45.490Z,99840.94
2019-04-07T14:40:03.606Z,99840.73
2019-04-07T14:45:40.628Z,99843.61
2019-04-07T14:51:08.204Z,99843.59
2019-04-07T14:56:21.925Z,99841.64
2019-04-07T15:01:52.378Z,99841.64
2019-04-07T15:07:14.148Z,99852.96
2019-04-07T15:12:26.649Z,99866.14
2019-04-07T15:17:33.006Z,99868.79
2019-04-07T15:22:38.966Z,99863.78
2019-04-07T15:27:45.568Z,99868.94
2019-04-07T15:32:51.592Z,99865.13
2019-04-07T15:37:57.227Z,99863.18
2019-04-07T15:43:05.531Z,99862.07
2019-04-07T15:48:10.342Z,99863.53
2019-04-07T15:53:16.626Z,99875.73
2019-04-07T15:58:22.615Z,99875.58
2019-04-07T16:03:28.768Z,99871.57
2019-04-07T16:08:34.942Z,99881.32
2019-04-07T16:13:40.545Z,99882.94
2019-04-07T16:18:46.635Z,99882.55
2019-04-07T16:23:54.010Z,99881.38
2019-04-07T16:28:59.275Z,99886.61
2019-04-07T16:34:07.561Z,99892.02
2019-04-07T16:39:11.928Z,99894.66
2019-04-07T16:44:17.474Z,99893.81
2019-04-07T16:49:23.640Z,99900.31
2019-04-07T16:54:30.183Z,99914.84
2019-04-07T16:59:36.651Z,99917.20
2019-04-07T17:04:43.065Z,99921.54
2019-04-07T17:09:48.919Z,99929.35
2019-04-07T17:14:54.403Z,99922.81
2019-04-07T17:20:00.672Z,99939.47
2019-04-07T17:25:09.246Z,99939.22
2019-04-07T17:30:16.856Z,99947.84
2019-04-07T17:35:23.250Z,99943.19
2019-04-07T17:40:32.857Z,99955.56
2019-04-07T17:45:56.335Z,99960.63
2019-04-07T17:51:16.658Z,99960.53
2019-04-07T17:56:36.916Z,99974.63
2019-04-07T18:02:04.473Z,99979.60
2019-04-07T18:07:35.635Z,99979.52
2019-04-07T18:13:07.429Z,99987.39
2019-04-07T18:18:31.819Z,99995.07
2019-04-07T18:23:58.762Z,100002.84
2019-04-07T18:29:11.212Z,100005.98
2019-04-07T18:34:47.297Z,100014.33
2019-04-07T18:40:21.111Z,100026.55
2019-04-07T18:45:36.990Z,100038.94
2019-04-07T18:51:02.979Z,100044.27
2019-04-07T18:56:27.165Z,100048.03
2019-04-07T19:02:04.343Z,100064.63
2019-04-07T19:07:30.460Z,100068.40
2019-04-07T19:13:03.253Z,100071.94
2019-04-07T19:18:23.547Z,100071.73
2019-04-07T19:23:58.666Z,100076.53
2019-04-07T19:29:25.057Z,100081.48
2019-04-07T19:35:02.173Z,100089.00
2019-04-07T19:40:26.941Z,100091.94
2019-04-07T19:45:45.136Z,100099.78
2019-04-07T19:51:08.781Z,100097.20
2019-04-07T19:56:48.171Z,100097.27
2019-04-07T20:02:15.692Z,100098.65
2019-04-07T20:07:46.239Z,100098.45
2019-04-07T20:13:15.339Z,100109.05
2019-04-07T20:18:39.859Z,100110.50
2019-04-07T20:23:55.226Z,100114.59
2019-04-07T20:29:12.005Z,100117.83
2019-04-07T20:34:51.440Z,100121.83
2019-04-07T20:40:10.289Z,100123.25
2019-04-07T20:45:47.208Z,100127.64
2019-04-07T20:51:06.156Z,100125.66
2019-04-07T20:56:31.448Z,100123.89
2019-04-07T21:02:02.502Z,100122.81
2019-04-07T21:07:28.914Z,100122.83
2019-04-07T21:12:52.759Z,100131.41
2019-04-07T21:18:12.613Z,100132.84
2019-04-07T21:23:39.847Z,100136.94
2019-04-07T21:29:10.500Z,100134.52
2019-04-07T21:34:36.497Z,100140.22
2019-04-07T21:40:10.034Z,100135.84
2019-04-07T21:45:39.867Z,100143.66
2019-04-07T21:51:00.968Z,100141.63
2019-04-07T21:56:31.178Z,100150.09
2019-04-07T22:01:47.568Z,100152.33
2019-04-07T22:07:11.166Z,100159.05
2019-04-07T22:12:16.911Z,100160.75
2019-04-07T22:17:23.403Z,100161.09
2019-04-07T22:22:29.067Z,100170.98
2019-04-07T22:27:34.704Z,100166.88
2019-04-07T22:32:40.721Z,100170.08
2019-04-07T22:37:48.344Z,100181.59
2019-04-07T22:42:54.158Z,100176.58
2019-04-07T22:47:59.788Z,100181.93
2019-04-07T22:53:05.258Z,100185.23
2019-04-07T22:58:10.698Z,100188.56
2019-04-07T23:03:16.183Z,100182.98
2019-04-07T23:08:21.783Z,100184.86
2019-04-07T23:13:27.983Z,100185.70
2019-04-07T23:18:33.553Z,100194.88
2019-04-07T23:23:39.686Z,100197.75
2019-04-07T23:28:47.061Z,100194.07
2019-04-07T23:33:52.638Z,100207.04
2019-04-07T23:38:58.155Z,100210.62
2019-04-07T23:44:03.581Z,100216.86
2019-04-07T23:49:09.933Z,100211.95
2019-04-07T23:54:16.439Z,100216.08
2019-04-07T23:59:22.792Z,100223.39
